Floreffe, Belgium
Current Conditions -  °F | °C
As of 9:20 AM on Saturday 25 Oct 2014 (Local Time) from EBCI Reporting Station
Haze Haze  
Wind Chill: 52°   Ceiling: 700
Heat Index: 52°   Visibility: 1.5mi
Dew Point: 50°   Wind: 8mph
Humidity: 94%   Direction: 200°SSW
Pressure: 30.09"   Gusts: NA
Location:  50.43°N, 4.76°E
Report Text: EBCI 250720Z 20007KT 2500 BR SCT004 BKN007 11/10 Q1019 TEMPO 1500 BR
Loading
Personal Weather Stations






























Interactive Weather Map
Tropical Storm Tracking
New forecast layout! Learn more

10-Day Weather Forecast

Advertisements
Track Severe Weather on mobile